Time;durP1;ratioP1;P1;durP2;ratioP2;P2;SDS_P1;SDS_P2;PMS_P1;PMS_P2;Temp;Humidity;BMP_temperature;BMP_pressure;BME280_temperature;BME280_humidity;BME280_pressure;Samples;Min_cycle;Max_cycle;Signal;HPM_P1;HPM_P2
2023/07/18 00:01:20;;;;;;;;;;;;;;;25.98;42.70;99765.56;3084845;28;20582;-74
2023/07/18 00:02:52;;;;;;;6.63;2.83;;;;;;;26.06;42.72;99765.56;3078361;28;19997;-73
2023/07/18 00:04:24;;;;;;;8.73;3.00;;;;;;;26.07;42.95;99755.72;3074812;28;20081;-74
2023/07/18 00:05:56;;;;;;;8.03;3.13;;;;;;;26.08;42.94;99752.84;3077723;28;20141;-74
2023/07/18 00:07:27;;;;;;;4.63;3.00;;;;;;;26.08;42.94;99763.53;3073299;28;20322;-73
2023/07/18 00:08:59;;;;;;;8.52;3.22;;;;;;;26.08;42.83;99754.69;3084557;28;20448;-74
2023/07/18 00:10:29;;;;;;;10.65;3.47;;;;;;;26.07;42.99;99758.38;3077717;28;20552;-74
2023/07/18 00:12:03;;;;;;;8.25;2.92;;;;;;;26.06;42.70;99762.88;3072611;28;20062;-74
2023/07/18 00:13:34;;;;;;;5.10;2.97;;;;;;;26.04;42.56;99764.06;3083372;28;20132;-75
2023/07/18 00:15:09;;;;;;;8.10;3.05;;;;;;;26.05;42.80;99760.38;3074137;28;20536;-76
2023/07/18 00:16:41;;;;;;;6.22;3.60;;;;;;;26.05;43.10;99769.22;3082376;28;20069;-76
2023/07/18 00:18:13;;;;;;;9.32;2.58;;;;;;;26.07;42.82;99766.38;3084277;28;20508;-74
2023/07/18 00:19:45;;;;;;;8.48;2.72;;;;;;;26.08;43.35;99760.84;3084296;28;20063;-71
2023/07/18 00:21:16;;;;;;;6.32;3.50;;;;;;;26.09;43.11;99757.22;3071999;28;20061;-72
2023/07/18 00:22:48;;;;;;;10.18;2.88;;;;;;;26.09;42.94;99761.72;3079128;28;20059;-71
2023/07/18 00:24:19;;;;;;;6.30;2.95;;;;;;;26.09;42.97;99754.53;3084001;28;20050;-71
2023/07/18 00:25:51;;;;;;;5.72;3.20;;;;;;;26.09;43.06;99753.72;3080561;28;20055;-70
2023/07/18 00:27:24;;;;;;;6.97;2.50;;;;;;;26.08;42.83;99757.38;3072238;28;20480;-70
2023/07/18 00:28:56;;;;;;;13.15;3.15;;;;;;;26.04;43.36;99762.22;3076511;28;20043;-70
2023/07/18 00:30:27;;;;;;;8.15;2.90;;;;;;;26.05;43.35;99761.19;3084057;28;20054;-69
2023/07/18 00:31:58;;;;;;;5.10;2.67;;;;;;;26.06;43.40;99762.88;3084126;28;20046;-72
2023/07/18 00:33:31;;;;;;;5.47;3.53;;;;;;;26.07;43.39;99758.38;3075504;28;20051;-71
2023/07/18 00:35:03;;;;;;;8.43;2.80;;;;;;;26.07;43.12;99763.72;3078870;28;20043;-71
2023/07/18 00:36:35;;;;;;;7.22;2.97;;;;;;;26.06;43.45;99754.06;3072124;28;20190;-71
2023/07/18 00:38:06;;;;;;;7.68;2.85;;;;;;;26.07;43.22;99756.53;3084164;28;20401;-71
2023/07/18 00:39:38;;;;;;;7.75;3.13;;;;;;;26.08;43.16;99762.69;3084292;28;20065;-72
2023/07/18 00:41:11;;;;;;;6.00;2.97;;;;;;;26.07;43.21;99753.03;3077304;28;20051;-71
2023/07/18 00:42:45;;;;;;;9.50;3.47;;;;;;;26.08;43.51;99749.34;3072125;28;20048;-72
2023/07/18 00:44:15;;;;;;;6.70;3.72;;;;;;;26.06;43.35;99746.03;3081824;28;20434;-71
2023/07/18 00:45:50;;;;;;;5.63;3.17;;;;;;;26.06;43.19;99741.53;3084128;28;20436;-72
2023/07/18 00:47:22;;;;;;;8.50;3.25;;;;;;;26.06;43.32;99746.03;3084015;28;20069;-72
2023/07/18 00:48:54;;;;;;;9.50;3.72;;;;;;;26.06;43.43;99749.53;3084243;28;20055;-72
2023/07/18 00:50:24;;;;;;;6.55;3.03;;;;;;;26.03;43.72;99749.88;3072541;28;20517;-72
2023/07/18 00:51:57;;;;;;;9.20;3.28;;;;;;;26.04;43.77;99750.72;3078594;28;20053;-72
2023/07/18 00:53:28;;;;;;;6.85;3.15;;;;;;;26.02;43.60;99756.22;3072955;28;20102;-72
2023/07/18 00:55:00;;;;;;;6.35;2.95;;;;;;;26.02;43.34;99758.03;3077051;28;20129;-71
2023/07/18 00:56:31;;;;;;;9.82;3.30;;;;;;;25.97;43.65;99752.38;3074506;28;20047;-72
2023/07/18 00:58:05;;;;;;;8.43;3.53;;;;;;;25.93;43.13;99746.56;3075626;28;20051;-72
2023/07/18 00:59:37;;;;;;;4.90;2.72;;;;;;;25.87;43.71;99747.25;3083792;28;20062;-72
2023/07/18 01:01:09;;;;;;;7.65;3.28;;;;;;;25.79;43.36;99745.41;3081550;28;20128;-72
2023/07/18 01:02:41;;;;;;;6.43;2.55;;;;;;;25.76;43.69;99737.72;3071633;28;20055;-72
2023/07/18 01:04:13;;;;;;;9.77;3.63;;;;;;;25.77;43.40;99750.06;3071868;28;20047;-71
2023/07/18 01:05:46;;;;;;;9.18;3.13;;;;;;;25.75;43.48;99738.72;3072347;28;20050;-71
2023/07/18 01:07:18;;;;;;;4.32;2.70;;;;;;;25.69;43.81;99735.91;3072793;28;20448;-72
2023/07/18 01:08:50;;;;;;;5.72;3.08;;;;;;;25.65;43.67;99743.41;3060358;29;20441;-70
2023/07/18 01:10:23;;;;;;;6.80;2.85;;;;;;;25.62;44.04;99743.75;3082767;28;20057;-70
2023/07/18 01:11:55;;;;;;;6.38;3.03;;;;;;;25.55;43.87;99734.72;3081686;28;20047;-70
2023/07/18 01:13:28;;;;;;;5.77;3.10;;;;;;;25.56;43.72;99742.59;3083303;28;20059;-70
2023/07/18 01:14:59;;;;;;;6.80;3.45;;;;;;;25.56;43.70;99739.91;3084203;28;20372;-73
2023/07/18 01:16:32;;;;;;;5.03;3.15;;;;;;;25.54;44.15;99736.56;3083914;28;20521;-73
2023/07/18 01:18:08;;;;;;;6.35;2.67;;;;;;;25.48;44.24;99731.91;3083874;28;20121;-73
2023/07/18 01:19:40;;;;;;;10.45;3.25;;;;;;;25.43;43.81;99727.06;3075755;28;20089;-74
2023/07/18 01:21:18;;;;;;;6.10;3.55;;;;;;;25.41;44.08;99725.59;3083885;28;20054;-75
2023/07/18 01:22:51;;;;;;;9.82;3.40;;;;;;;25.36;44.20;99720.75;3083703;28;20054;-74
2023/07/18 01:24:22;;;;;;;8.23;3.28;;;;;;;25.33;44.37;99721.09;3083748;28;20047;-73
2023/07/18 01:25:54;;;;;;;9.95;3.42;;;;;;;25.33;44.31;99721.09;3079275;28;20509;-73
2023/07/18 01:27:26;;;;;;;7.53;3.15;;;;;;;25.29;44.24;99716.22;3072347;28;20074;-73
2023/07/18 01:28:57;;;;;;;7.63;3.50;;;;;;;25.27;44.65;99718.25;3072450;28;20507;-73
2023/07/18 01:30:30;;;;;;;8.20;3.63;;;;;;;25.23;44.65;99716.91;3075445;28;20047;-72
2023/07/18 01:32:01;;;;;;;5.53;3.50;;;;;;;25.19;44.51;99711.91;3083941;28;20125;-72
2023/07/18 01:33:32;;;;;;;8.10;3.70;;;;;;;25.21;44.72;99709.09;3077516;28;20434;-73
2023/07/18 01:35:05;;;;;;;6.60;3.08;;;;;;;25.22;44.49;99704.59;3073118;28;20051;-73
2023/07/18 01:36:38;;;;;;;9.85;3.90;;;;;;;25.19;44.57;99703.91;3083775;28;20055;-72
2023/07/18 01:38:10;;;;;;;7.90;3.58;;;;;;;25.18;45.00;99704.91;3083892;28;20145;-72
2023/07/18 01:39:41;;;;;;;6.18;3.85;;;;;;;25.22;44.60;99708.06;3083980;28;20066;-72
2023/07/18 01:41:13;;;;;;;7.88;3.10;;;;;;;25.23;44.54;99707.09;3076627;28;20055;-73
2023/07/18 01:42:44;;;;;;;7.32;3.20;;;;;;;25.18;44.98;99704.91;3071661;28;20048;-73
2023/07/18 01:44:16;;;;;;;9.15;3.38;;;;;;;25.17;44.53;99705.06;3081757;28;20059;-73
2023/07/18 01:45:47;;;;;;;5.68;3.00;;;;;;;25.14;44.58;99695.59;3083783;28;20883;-74
2023/07/18 01:47:19;;;;;;;10.38;3.08;;;;;;;25.11;44.95;99701.22;3079201;28;20071;-72
2023/07/18 01:48:51;;;;;;;7.90;3.30;;;;;;;25.08;45.26;99708.69;3075162;28;20058;-71
2023/07/18 01:50:21;;;;;;;4.40;2.72;;;;;;;25.05;44.90;99704.53;3083831;28;20443;-72
2023/07/18 01:51:55;;;;;;;4.55;3.42;;;;;;;25.02;44.89;99699.53;3082207;28;20054;-72
2023/07/18 01:53:27;;;;;;;5.38;3.60;;;;;;;24.98;45.26;99706.19;3072841;28;20051;-72
2023/07/18 01:54:59;;;;;;;5.60;3.10;;;;;;;24.92;45.40;99699.69;3076642;28;20587;-71
2023/07/18 01:56:31;;;;;;;9.05;3.72;;;;;;;24.96;45.34;99701.03;3074320;28;20318;-71
2023/07/18 01:58:03;;;;;;;6.57;3.40;;;;;;;24.98;45.07;99698.22;3074927;28;20448;-70
2023/07/18 01:59:33;;;;;;;7.90;3.10;;;;;;;25.00;45.38;99703.38;3083672;28;20109;-70
2023/07/18 02:01:05;;;;;;;7.40;3.33;;;;;;;25.02;45.66;99698.69;3083623;28;20447;-70
2023/07/18 02:02:36;;;;;;;6.40;3.30;;;;;;;25.03;45.64;99695.88;3078894;28;20428;-69
2023/07/18 02:04:08;;;;;;;7.65;3.60;;;;;;;25.03;45.56;99687.91;3083563;28;20078;-69
2023/07/18 02:05:39;;;;;;;7.55;3.72;;;;;;;25.02;45.28;99685.38;3083743;28;20050;-69
2023/07/18 02:07:12;;;;;;;6.22;3.42;;;;;;;25.00;45.04;99688.22;3073373;28;20123;-69
2023/07/18 02:08:44;;;;;;;7.80;3.80;;;;;;;24.95;45.46;99685.22;3085353;28;20059;-70
2023/07/18 02:10:19;;;;;;;6.30;3.95;;;;;;;24.96;45.13;99687.72;3085934;28;20051;-71
2023/07/18 02:11:51;;;;;;;10.57;3.67;;;;;;;24.93;45.26;99687.19;3073651;28;20544;-71
2023/07/18 02:13:22;;;;;;;9.73;4.35;;;;;;;24.92;45.64;99688.22;3083486;28;20408;-72
2023/07/18 02:14:53;;;;;;;8.90;4.68;;;;;;;24.90;45.62;99695.53;3085844;28;20062;-69
2023/07/18 02:16:25;;;;;;;9.35;3.38;;;;;;;24.90;45.89;99695.53;3085417;28;20105;-69
2023/07/18 02:17:56;;;;;;;7.75;3.70;;;;;;;24.89;45.47;99696.53;3074313;28;20062;-69
2023/07/18 02:19:28;;;;;;;7.50;4.30;;;;;;;24.82;45.44;99687.53;3080327;28;20957;-69
2023/07/18 02:20:59;;;;;;;8.30;3.72;;;;;;;24.86;45.69;99699.53;3085472;28;20055;-70
2023/07/18 02:22:34;;;;;;;10.05;3.72;;;;;;;24.86;45.56;99692.34;3085666;28;20051;-71
2023/07/18 02:24:06;;;;;;;7.45;3.28;;;;;;;24.85;45.62;99695.19;3085585;28;20594;-72
2023/07/18 02:25:38;;;;;;;6.07;3.70;;;;;;;24.83;45.70;99697.19;3077873;28;20059;-72
2023/07/18 02:27:09;;;;;;;7.15;3.53;;;;;;;24.84;45.83;99698.84;3068822;28;20047;-71
2023/07/18 02:28:41;;;;;;;5.20;3.22;;;;;;;24.85;45.75;99701.34;3070794;28;20473;-72
2023/07/18 02:30:13;;;;;;;11.00;3.60;;;;;;;24.87;45.51;99701.19;3080327;28;20062;-71
2023/07/18 02:31:45;;;;;;;9.15;4.25;;;;;;;24.86;45.28;99710.19;3075710;28;20095;-73
2023/07/18 02:33:16;;;;;;;8.20;3.92;;;;;;;24.86;45.43;99710.19;3068833;28;20047;-72
2023/07/18 02:34:47;;;;;;;7.32;3.90;;;;;;;24.87;45.19;99712.66;3080509;28;20058;-72
2023/07/18 02:36:21;;;;;;;6.20;3.92;;;;;;;24.87;45.58;99711.84;3080338;28;20112;-72
2023/07/18 02:37:54;;;;;;;6.00;3.83;;;;;;;24.89;45.34;99709.84;3080578;28;20145;-72
2023/07/18 02:39:26;;;;;;;7.93;4.13;;;;;;;24.87;45.17;99710.00;3080098;28;20133;-72
2023/07/18 02:40:57;;;;;;;19.88;8.68;;;;;;;24.89;45.32;99707.19;3075174;28;20047;-73
2023/07/18 02:42:31;;;;;;;13.85;7.75;;;;;;;24.89;45.19;99701.84;3068261;28;20087;-72
2023/07/18 02:44:03;;;;;;;12.10;5.93;;;;;;;24.90;45.25;99701.69;3077203;28;20051;-73
2023/07/18 02:45:34;;;;;;;13.32;7.20;;;;;;;24.89;45.58;99710.69;3080240;28;20150;-73
2023/07/18 02:47:06;;;;;;;13.10;7.70;;;;;;;24.88;45.35;99713.53;3068904;28;20560;-73
2023/07/18 02:48:38;;;;;;;20.02;9.88;;;;;;;24.89;45.60;99713.34;3075240;28;20054;-73
2023/07/18 02:50:10;;;;;;;25.00;14.32;;;;;;;24.88;45.67;99718.84;3080398;28;20051;-73
2023/07/18 02:51:41;;;;;;;27.23;12.45;;;;;;;24.87;45.79;99711.84;3079658;28;20060;-73
2023/07/18 02:53:14;;;;;;;26.42;14.10;;;;;;;24.89;45.47;99715.19;3071249;28;20115;-73
2023/07/18 02:54:45;;;;;;;;;;;;;;;24.73;45.49;99716.81;3071823;28;20559;-73
2023/07/18 02:56:16;;;;;;;29.02;13.95;;;;;;;24.77;45.84;99709.31;3072635;28;20166;-73
2023/07/18 02:57:47;;;;;;;31.15;18.50;;;;;;;24.84;45.79;99713.00;3069959;28;20863;-73
2023/07/18 02:59:21;;;;;;;39.33;21.08;;;;;;;24.85;45.37;99709.34;3073070;28;20059;-73
2023/07/18 03:00:53;;;;;;;41.22;23.05;;;;;;;24.85;45.48;99709.34;3075087;28;20184;-72
2023/07/18 03:02:23;;;;;;;48.97;23.60;;;;;;;24.87;45.60;99709.16;3067975;28;20157;-73
2023/07/18 03:03:56;;;;;;;46.85;26.92;;;;;;;24.88;45.82;99713.53;3068096;28;20726;-73
2023/07/18 03:05:29;;;;;;;55.55;28.27;;;;;;;24.89;45.71;99716.00;3078976;28;20055;-74
2023/07/18 03:07:00;;;;;;;48.92;28.15;;;;;;;24.88;45.68;99722.34;3080163;28;20061;-73
2023/07/18 03:08:36;;;;;;;50.90;28.48;;;;;;;24.89;45.68;99713.34;3070280;28;20051;-73
2023/07/18 03:10:07;;;;;;;54.90;31.73;;;;;;;24.88;45.31;99721.50;3067923;28;20481;-73
2023/07/18 03:11:39;;;;;;;60.67;33.88;;;;;;;24.88;45.73;99718.84;3068035;28;20051;-73
2023/07/18 03:13:10;;;;;;;55.75;32.28;;;;;;;24.85;45.61;99717.34;3075933;28;20121;-71
2023/07/18 03:14:42;;;;;;;61.78;33.58;;;;;;;24.87;45.83;99722.50;3080201;28;20051;-73
2023/07/18 03:16:13;;;;;;;60.30;32.65;;;;;;;24.88;45.79;99718.84;3069612;28;20058;-73
2023/07/18 03:17:45;;;;;;;51.47;28.23;;;;;;;24.88;45.40;99714.34;3073141;28;20567;-73
2023/07/18 03:19:16;;;;;;;51.42;26.60;;;;;;;24.90;45.48;99722.16;3079291;28;20425;-73
2023/07/18 03:20:48;;;;;;;53.38;29.05;;;;;;;24.90;45.64;99722.16;3079755;28;20089;-73
2023/07/18 03:22:20;;;;;;;44.40;24.67;;;;;;;24.90;45.92;99716.84;3072174;28;20649;-73
2023/07/18 03:23:53;;;;;;;48.33;23.25;;;;;;;24.93;45.52;99716.50;3080037;28;20235;-73
2023/07/18 03:25:25;;;;;;;34.00;17.33;;;;;;;24.93;45.70;99721.81;3079067;28;20078;-74
2023/07/18 03:26:56;;;;;;;31.13;18.33;;;;;;;24.93;45.27;99727.16;3067923;28;20526;-73
2023/07/18 03:28:28;;;;;;;31.88;16.73;;;;;;;24.91;45.23;99723.84;3068636;28;20055;-74
2023/07/18 03:29:59;;;;;;;29.05;15.80;;;;;;;24.93;45.49;99724.50;3075852;28;20127;-74
2023/07/18 03:31:31;;;;;;;37.03;18.95;;;;;;;24.94;45.37;99729.66;3068107;28;20066;-73
2023/07/18 03:33:02;;;;;;;34.60;18.08;;;;;;;24.95;45.34;99730.50;3079241;28;20146;-73
2023/07/18 03:34:34;;;;;;;34.63;19.85;;;;;;;24.96;45.44;99732.16;3079954;28;20065;-69
2023/07/18 03:36:05;;;;;;;38.95;19.55;;;;;;;24.96;45.44;99734.81;3069753;28;20427;-70
2023/07/18 03:37:37;;;;;;;36.83;18.38;;;;;;;24.95;45.78;99736.66;3067798;28;20055;-70
2023/07/18 03:39:11;;;;;;;27.88;16.23;;;;;;;24.96;45.51;99734.81;3076094;28;20058;-70
2023/07/18 03:40:41;;;;;;;23.85;13.43;;;;;;;24.96;45.61;99734.81;3076740;28;20141;-70
2023/07/18 03:42:13;;;;;;;28.95;13.38;;;;;;;24.97;45.52;99736.50;3067677;28;20063;-70
2023/07/18 03:43:44;;;;;;;22.77;11.85;;;;;;;24.98;45.29;99735.50;3074007;28;20113;-70
2023/07/18 03:45:17;;;;;;;23.23;12.93;;;;;;;25.01;45.46;99737.84;3069829;28;20580;-68
2023/07/18 03:46:48;;;;;;;20.55;11.85;;;;;;;25.01;45.10;99732.50;3072567;28;20060;-70
2023/07/18 03:48:22;;;;;;;22.63;13.68;;;;;;;25.01;45.25;99737.84;3079833;28;20560;-71
2023/07/18 03:49:52;;;;;;;28.45;14.13;;;;;;;25.02;45.18;99736.81;3079406;28;20055;-72
2023/07/18 03:51:24;;;;;;;24.98;13.35;;;;;;;25.05;45.14;99741.81;3078978;28;20159;-72
2023/07/18 03:52:55;;;;;;;26.17;14.23;;;;;;;25.09;45.35;99742.34;3072732;28;20055;-72
2023/07/18 03:54:28;;;;;;;24.48;12.93;;;;;;;25.08;45.13;99744.19;3068182;28;20062;-72
2023/07/18 03:56:03;;;;;;;;;;;;;;;24.88;45.52;99740.16;3068915;28;20113;-72
2023/07/18 03:57:34;;;;;;;;;;;;;;;24.74;45.88;99737.09;3068286;28;19930;-72
2023/07/18 03:59:05;;;;;;;22.10;11.82;;;;;;;24.85;45.59;99740.47;3075867;28;19926;-72
2023/07/18 04:00:37;;;;;;;22.30;13.00;;;;;;;24.92;45.90;99741.47;3067510;28;20162;-72
2023/07/18 04:02:08;;;;;;;26.73;13.20;;;;;;;24.95;45.85;99736.66;3077463;28;20165;-72
2023/07/18 04:03:41;;;;;;;25.30;13.35;;;;;;;24.94;45.80;99742.16;3067521;28;20183;-72
2023/07/18 04:05:13;;;;;;;32.65;13.85;;;;;;;24.95;45.90;99738.50;3076760;28;20059;-72
2023/07/18 04:06:45;;;;;;;20.50;11.90;;;;;;;24.88;46.39;99733.00;3079069;28;20058;-72
2023/07/18 04:08:16;;;;;;;31.55;10.57;;;;;;;24.88;46.82;99742.81;3079413;28;20094;-73
2023/07/18 04:09:49;;;;;;;22.38;10.77;;;;;;;24.86;47.00;99742.97;3079449;28;20142;-73
2023/07/18 04:11:20;;;;;;;;;;;;;;;24.62;47.06;99741.06;3077961;28;20421;-71
2023/07/18 04:12:52;;;;;;;21.77;10.65;;;;;;;24.72;47.02;99735.59;3076736;28;20112;-70
2023/07/18 04:14:23;;;;;;;20.55;10.35;;;;;;;24.80;47.09;99732.97;3067374;28;20055;-70
2023/07/18 04:15:55;;;;;;;15.82;9.98;;;;;;;24.85;47.08;99727.16;3069118;28;20089;-70
2023/07/18 04:17:27;;;;;;;21.08;10.10;;;;;;;24.89;47.19;99731.16;3078669;28;20078;-72
2023/07/18 04:18:59;;;;;;;19.50;9.30;;;;;;;24.94;46.74;99731.50;3078949;28;20455;-72
2023/07/18 04:20:31;;;;;;;14.43;8.57;;;;;;;24.98;47.10;99724.84;3079284;28;20058;-72
2023/07/18 04:22:03;;;;;;;17.63;9.20;;;;;;;25.04;47.30;99723.34;3079277;28;20082;-69
2023/07/18 04:23:35;;;;;;;19.58;7.20;;;;;;;25.06;47.03;99726.69;3079239;28;20093;-71
2023/07/18 04:25:08;;;;;;;16.52;6.80;;;;;;;25.08;47.16;99728.22;3078163;28;20592;-72
2023/07/18 04:26:40;;;;;;;11.15;6.22;;;;;;;25.10;47.47;99726.19;3072157;28;20093;-72
2023/07/18 04:28:11;;;;;;;19.38;12.98;;;;;;;25.12;47.47;99728.69;3078089;28;20054;-75
2023/07/18 04:29:43;;;;;;;12.82;7.03;;;;;;;25.13;47.84;99727.69;3077573;28;20148;-79
2023/07/18 04:31:14;;;;;;;13.52;6.15;;;;;;;25.13;47.67;99736.56;3078919;28;20055;-77
2023/07/18 04:32:46;;;;;;;19.90;7.72;;;;;;;25.13;47.96;99719.69;3079076;28;20046;-73
2023/07/18 04:34:18;;;;;;;17.17;8.48;;;;;;;25.15;47.91;99723.06;3079114;28;20106;-72
2023/07/18 04:35:51;;;;;;;20.80;11.88;;;;;;;25.17;48.21;99721.91;3078878;28;20059;-71
2023/07/18 04:37:22;;;;;;;13.63;7.03;;;;;;;25.21;48.33;99725.06;3078886;28;20046;-73
2023/07/18 04:38:54;;;;;;;14.95;7.22;;;;;;;25.23;47.92;99717.75;3079354;28;20137;-72
2023/07/18 04:40:26;;;;;;;17.17;6.60;;;;;;;25.25;48.21;99713.06;3078602;28;20444;-69
2023/07/18 04:41:58;;;;;;;12.90;8.45;;;;;;;25.27;48.02;99716.41;3069300;28;20154;-71
2023/07/18 04:43:30;;;;;;;13.95;6.60;;;;;;;25.32;48.45;99714.09;3069218;28;20055;-71
2023/07/18 04:45:01;;;;;;;20.45;15.27;;;;;;;25.37;48.04;99718.91;3077227;28;20050;-71
2023/07/18 04:46:33;;;;;;;21.85;7.95;;;;;;;25.41;47.90;99720.25;3079047;28;20168;-72
2023/07/18 04:48:04;;;;;;;17.40;6.43;;;;;;;25.45;48.00;99718.91;3078905;28;21563;-71
2023/07/18 04:49:36;;;;;;;24.55;7.78;;;;;;;25.49;48.10;99706.06;3079105;28;20058;-69
2023/07/18 04:51:07;;;;;;;15.63;7.55;;;;;;;25.51;48.02;99707.56;3076480;28;20059;-73
2023/07/18 04:52:39;;;;;;;15.40;7.32;;;;;;;25.54;47.88;99699.25;3074429;28;20113;-71
2023/07/18 04:54:10;;;;;;;16.27;8.45;;;;;;;25.57;47.52;99712.25;3067948;28;20226;-70
2023/07/18 04:55:45;;;;;;;17.27;8.32;;;;;;;25.56;47.18;99702.59;3066815;28;20119;-72
2023/07/18 04:57:17;;;;;;;15.82;9.18;;;;;;;25.61;47.24;99710.06;3068210;28;20057;-71
2023/07/18 04:58:49;;;;;;;17.80;8.25;;;;;;;25.62;47.04;99714.41;3074762;28;20153;-68
2023/07/18 05:00:20;;;;;;;21.25;13.30;;;;;;;25.65;47.42;99709.56;3072949;28;20051;-67
2023/07/18 05:01:53;;;;;;;28.88;16.88;;;;;;;25.71;47.30;99705.41;3074758;28;20058;-71
2023/07/18 05:03:26;;;;;;;31.52;14.43;;;;;;;25.77;46.93;99709.22;3066544;28;20505;-73
2023/07/18 05:04:57;;;;;;;20.05;9.30;;;;;;;25.81;47.01;99707.88;3067503;28;20065;-73
2023/07/18 05:06:29;;;;;;;20.17;8.40;;;;;;;25.86;47.04;99706.41;3078916;28;20050;-71
2023/07/18 05:08:02;;;;;;;16.75;7.95;;;;;;;25.91;47.28;99713.91;3078839;28;20058;-71
2023/07/18 05:09:32;;;;;;;22.02;8.35;;;;;;;25.94;46.82;99710.88;3078981;28;20122;-71
2023/07/18 05:11:06;;;;;;;11.65;6.43;;;;;;;25.98;46.62;99704.19;3069898;28;20870;-72
2023/07/18 05:12:37;;;;;;;12.80;6.90;;;;;;;26.03;46.71;99712.53;3066420;28;20568;-72
2023/07/18 05:14:09;;;;;;;19.13;7.35;;;;;;;26.10;47.04;99700.16;3070085;28;20051;-72
2023/07/18 05:15:41;;;;;;;15.15;7.10;;;;;;;26.15;46.67;99701.47;3075378;28;20121;-73
2023/07/18 05:17:13;;;;;;;12.30;6.63;;;;;;;26.19;46.62;99702.78;3076010;28;20148;-71
2023/07/18 05:18:44;;;;;;;18.42;6.45;;;;;;;26.22;46.78;99705.13;3073866;28;20496;-70
2023/07/18 05:20:17;;;;;;;21.05;6.72;;;;;;;26.29;46.38;99704.25;3062089;28;20055;-72
2023/07/18 05:21:48;;;;;;;17.15;7.28;;;;;;;26.33;46.68;99715.44;3069572;28;20058;-73
2023/07/18 05:23:19;;;;;;;20.77;7.47;;;;;;;26.41;46.21;99709.19;3078541;28;20101;-72
2023/07/18 05:24:50;;;;;;;16.48;6.80;;;;;;;26.47;45.71;99716.50;3077604;28;20058;-73
2023/07/18 05:26:24;;;;;;;11.25;6.18;;;;;;;26.52;45.94;99714.19;3069433;28;20055;-72
2023/07/18 05:27:58;;;;;;;14.07;5.85;;;;;;;26.55;45.35;99706.66;3066487;28;21142;-72
2023/07/18 05:29:29;;;;;;;15.68;6.18;;;;;;;26.55;45.51;99709.34;3068540;28;20525;-71
2023/07/18 05:31:07;;;;;;;17.05;5.82;;;;;;;26.57;45.47;99714.50;3078534;28;20121;-72
2023/07/18 05:32:39;;;;;;;21.45;5.93;;;;;;;26.55;45.46;99708.50;3078614;28;20058;-69
2023/07/18 05:34:14;;;;;;;8.95;5.93;;;;;;;26.57;45.10;99709.16;3078486;28;20200;-71
2023/07/18 05:35:45;;;;;;;9.35;5.20;;;;;;;26.62;44.93;99714.81;3078497;28;20137;-70
2023/07/18 05:37:17;;;;;;;11.95;5.82;;;;;;;26.63;44.95;99711.13;3078862;28;20059;-71
2023/07/18 05:38:48;;;;;;;13.85;5.22;;;;;;;26.65;44.82;99714.47;3066444;28;20054;-72
2023/07/18 05:40:21;;;;;;;12.48;4.95;;;;;;;26.72;44.88;99703.91;3077463;28;20090;-72
2023/07/18 05:41:53;;;;;;;10.65;5.50;;;;;;;26.76;44.68;99703.38;3077936;28;20054;-72
2023/07/18 05:43:25;;;;;;;13.98;5.95;;;;;;;26.76;44.73;99703.38;3068591;28;20086;-73
2023/07/18 05:44:56;;;;;;;15.48;6.00;;;;;;;26.80;45.13;99701.19;3077255;28;20051;-72
2023/07/18 05:46:28;;;;;;;14.13;5.72;;;;;;;26.87;44.65;99706.66;3080835;28;20050;-71
2023/07/18 05:47:59;;;;;;;9.57;5.70;;;;;;;26.91;44.71;99706.13;3075398;28;20063;-73
2023/07/18 05:49:31;;;;;;;17.25;5.55;;;;;;;27.00;44.99;99705.06;3081146;28;20066;-71
2023/07/18 05:51:03;;;;;;;11.65;5.28;;;;;;;27.03;44.55;99690.50;3076462;28;20051;-71
2023/07/18 05:52:35;;;;;;;11.65;5.43;;;;;;;27.10;44.74;99690.63;3076139;28;20063;-73
2023/07/18 05:54:06;;;;;;;15.40;5.07;;;;;;;27.13;44.66;99691.09;3068630;28;20141;-73
2023/07/18 05:55:39;;;;;;;15.75;5.53;;;;;;;27.19;44.69;99695.75;3068519;28;20058;-73
2023/07/18 05:57:11;;;;;;;8.57;4.43;;;;;;;27.26;44.59;99697.72;3070788;28;20055;-72
2023/07/18 05:58:44;;;;;;;14.20;4.78;;;;;;;27.31;44.51;99688.16;3068620;28;20062;-72
2023/07/18 06:00:16;;;;;;;21.02;4.65;;;;;;;27.40;44.28;99683.56;3068631;28;20063;-73
2023/07/18 06:01:48;;;;;;;17.88;4.90;;;;;;;27.50;43.89;99677.94;3075978;28;20433;-70
2023/07/18 06:03:20;;;;;;;22.67;4.97;;;;;;;27.56;43.99;99679.91;3070713;28;20378;-73
2023/07/18 06:04:53;;;;;;;11.50;4.72;;;;;;;27.64;43.73;99682.50;3078464;28;20059;-72
2023/07/18 06:06:25;;;;;;;18.33;4.88;;;;;;;27.73;43.57;99675.22;3080776;28;20065;-76
2023/07/18 06:07:57;;;;;;;14.15;4.70;;;;;;;27.79;43.31;99672.66;3080763;28;20109;-74
2023/07/18 06:09:28;;;;;;;11.00;4.90;;;;;;;27.86;43.51;99676.28;3079167;28;20205;-73
2023/07/18 06:11:04;;;;;;;12.70;4.60;;;;;;;27.97;43.44;99674.16;3071643;28;20102;-73
2023/07/18 06:12:37;;;;;;;14.00;4.65;;;;;;;28.09;43.10;99678.00;3074925;28;20401;-73
2023/07/18 06:14:08;;;;;;;11.77;4.13;;;;;;;28.17;43.33;99674.41;3080094;28;20114;-73
2023/07/18 06:15:40;;;;;;;13.68;4.95;;;;;;;28.26;42.94;99671.44;3080261;28;20051;-74
2023/07/18 06:17:11;;;;;;;10.63;4.20;;;;;;;28.33;42.84;99667.00;3075005;28;20050;-72
2023/07/18 06:18:44;;;;;;;10.68;5.13;;;;;;;28.44;42.69;99667.56;3080368;28;20799;-77
2023/07/18 06:20:15;;;;;;;16.00;5.43;;;;;;;28.52;42.78;99654.91;3078901;28;20532;-71
2023/07/18 06:21:48;;;;;;;10.63;4.53;;;;;;;28.62;42.39;99659.94;3068374;28;20429;-71
2023/07/18 06:23:19;;;;;;;12.40;5.07;;;;;;;28.70;42.26;99659.00;3069920;28;20055;-72
2023/07/18 06:24:51;;;;;;;12.82;4.95;;;;;;;28.81;42.17;99663.88;3080368;28;20190;-69
2023/07/18 06:26:23;;;;;;;14.30;4.65;;;;;;;28.88;41.82;99672.78;3072212;28;20106;-70
2023/07/18 06:27:57;;;;;;;9.65;4.82;;;;;;;28.97;41.83;99662.78;3080391;28;20067;-73
2023/07/18 06:29:28;;;;;;;11.35;5.18;;;;;;;29.03;41.59;99659.34;3080065;28;20077;-75
2023/07/18 06:31:01;;;;;;;9.70;4.80;;;;;;;29.11;41.29;99659.22;3080109;28;20054;-79
2023/07/18 06:32:32;;;;;;;11.75;5.20;;;;;;;29.15;41.10;99665.84;3080261;28;20050;-75
2023/07/18 06:34:04;;;;;;;14.77;5.20;;;;;;;29.23;40.85;99660.34;3080530;28;20077;-75
2023/07/18 06:35:37;;;;;;;17.07;5.20;;;;;;;29.27;40.73;99658.09;3080309;28;20129;-74
2023/07/18 06:37:08;;;;;;;14.52;4.72;;;;;;;29.30;40.42;99662.25;3079971;28;20336;-73
2023/07/18 06:38:40;;;;;;;11.98;5.40;;;;;;;29.37;40.43;99649.72;3080474;28;20484;-76
2023/07/18 06:40:12;;;;;;;7.40;4.32;;;;;;;29.42;39.98;99645.44;3080288;28;20504;-77
2023/07/18 06:41:45;;;;;;;13.65;4.07;;;;;;;29.52;39.82;99649.63;3072875;28;20054;-79
2023/07/18 06:43:20;;;;;;;10.23;4.85;;;;;;;29.56;39.93;99649.03;3080188;28;20051;-76
2023/07/18 06:44:52;;;;;;;13.48;4.60;;;;;;;29.64;39.66;99648.09;3071052;28;20051;-80
2023/07/18 06:46:24;;;;;;;10.00;4.07;;;;;;;29.69;39.54;99645.63;3080641;28;20058;-72
2023/07/18 06:47:56;;;;;;;6.00;3.80;;;;;;;29.74;39.35;99645.06;3079983;28;20619;-74
2023/07/18 06:49:27;;;;;;;12.95;4.20;;;;;;;29.77;39.24;99648.16;3076815;28;20059;-66
2023/07/18 06:51:02;;;;;;;10.43;5.07;;;;;;;29.83;39.18;99641.19;3079936;28;20054;-70
2023/07/18 06:52:33;;;;;;;36.05;16.90;;;;;;;29.92;39.34;99645.38;3074214;28;20102;-69
2023/07/18 06:54:05;;;;;;;10.15;5.90;;;;;;;30.00;38.67;99647.06;3069626;28;20059;-67
2023/07/18 06:55:36;;;;;;;17.48;8.60;;;;;;;30.05;38.65;99642.75;3067022;28;20051;-68
2023/07/18 06:57:09;;;;;;;12.07;4.75;;;;;;;30.11;38.61;99644.63;3068156;28;20055;-70
2023/07/18 06:58:42;;;;;;;8.60;4.30;;;;;;;30.19;38.27;99653.53;3069948;28;20512;-72
2023/07/18 07:00:14;;;;;;;7.45;4.25;;;;;;;30.25;38.33;99648.22;3076748;28;20142;-70
2023/07/18 07:01:46;;;;;;;15.05;4.47;;;;;;;30.32;38.25;99640.22;3072483;28;20059;-70
2023/07/18 07:03:17;;;;;;;9.35;4.53;;;;;;;30.39;38.20;99641.03;3072341;28;20149;-67
2023/07/18 07:04:49;;;;;;;7.75;3.88;;;;;;;30.48;37.76;99639.00;3080527;28;20583;-68
2023/07/18 07:06:23;;;;;;;18.17;4.78;;;;;;;30.56;37.56;99639.66;3070845;28;20051;-70
2023/07/18 07:07:54;;;;;;;8.90;4.15;;;;;;;30.67;37.21;99640.91;3072526;28;20050;-70
2023/07/18 07:09:27;;;;;;;12.98;6.85;;;;;;;30.74;37.23;99638.25;3079960;28;20078;-69